createdAt,value
2022-10-11T00:00:54.462Z,65.84
2022-10-11T00:03:34.455Z,66.07
2022-10-11T00:06:04.073Z,65.86
2022-10-11T00:08:33.058Z,65.80
2022-10-11T00:11:02.974Z,66.01
2022-10-11T00:13:31.559Z,66.03
2022-10-11T00:15:59.833Z,66.19
2022-10-11T00:18:28.009Z,65.64
2022-10-11T00:21:07.041Z,66.03
2022-10-11T00:23:35.622Z,66.22
2022-10-11T00:26:05.088Z,66.37
2022-10-11T00:28:33.740Z,66.08
2022-10-11T00:31:02.374Z,65.98
2022-10-11T00:33:31.295Z,66.59
2022-10-11T00:36:00.596Z,66.45
2022-10-11T00:38:31.593Z,66.63
2022-10-11T00:41:01.021Z,66.53
2022-10-11T00:43:30.857Z,66.64
2022-10-11T00:46:01.245Z,67.31
2022-10-11T00:48:34.065Z,66.72
2022-10-11T00:51:05.275Z,66.49
2022-10-11T00:53:34.302Z,66.67
2022-10-11T00:56:09.005Z,66.64
2022-10-11T00:58:38.842Z,66.62
2022-10-11T01:01:07.876Z,66.60
2022-10-11T01:03:37.343Z,66.59
2022-10-11T01:06:06.203Z,66.72
2022-10-11T01:08:35.228Z,66.20
2022-10-11T01:11:03.673Z,66.56
2022-10-11T01:13:51.344Z,66.72
2022-10-11T01:16:22.586Z,66.75
2022-10-11T01:18:53.734Z,66.99
2022-10-11T01:21:28.815Z,66.90
2022-10-11T01:24:08.902Z,67.17
2022-10-11T01:26:37.164Z,67.10
2022-10-11T01:29:24.318Z,67.67
2022-10-11T01:32:11.288Z,67.60
2022-10-11T01:34:57.028Z,67.53
2022-10-11T01:37:37.585Z,67.43
2022-10-11T01:40:12.056Z,67.04
2022-10-11T01:42:41.796Z,66.80
2022-10-11T01:45:13.274Z,66.90
2022-10-11T01:47:42.808Z,66.86
2022-10-11T01:50:30.206Z,66.75
2022-10-11T01:53:01.625Z,66.72
2022-10-11T01:55:35.050Z,66.70
2022-10-11T01:58:38.555Z,66.61
2022-10-11T02:01:26.459Z,67.09
2022-10-11T02:04:01.837Z,66.99
2022-10-11T02:06:34.822Z,66.89
2022-10-11T02:09:08.218Z,66.87
2022-10-11T02:11:37.009Z,66.90
2022-10-11T02:14:13.682Z,67.12
2022-10-11T02:16:47.388Z,66.92
2022-10-11T02:19:19.559Z,67.10
2022-10-11T02:21:50.353Z,66.93
2022-10-11T02:24:21.711Z,66.67
2022-10-11T02:26:54.794Z,66.58
2022-10-11T02:29:24.747Z,66.65
2022-10-11T02:31:54.120Z,66.65
2022-10-11T02:34:25.603Z,66.85
2022-10-11T02:37:00.535Z,66.73
2022-10-11T02:39:34.854Z,67.01
2022-10-11T02:42:05.588Z,66.96
2022-10-11T02:44:38.377Z,67.29
2022-10-11T02:47:08.081Z,67.59
2022-10-11T02:49:37.071Z,67.70
2022-10-11T02:52:06.788Z,67.68
2022-10-11T02:54:35.370Z,67.67
2022-10-11T02:57:03.960Z,67.79
2022-10-11T02:59:32.134Z,67.51
2022-10-11T03:02:00.760Z,67.76
2022-10-11T03:04:29.401Z,67.76
2022-10-11T03:06:57.575Z,67.41
2022-10-11T03:09:26.264Z,68.15
2022-10-11T03:11:55.051Z,67.46
2022-10-11T03:14:24.242Z,67.48
2022-10-11T03:16:52.936Z,67.73
2022-10-11T03:19:21.417Z,67.86
2022-10-11T03:21:49.899Z,67.77
2022-10-11T03:24:18.483Z,67.88
2022-10-11T03:26:47.376Z,67.71
2022-10-11T03:29:15.753Z,67.99
2022-10-11T03:31:44.237Z,68.34
2022-10-11T03:34:12.617Z,68.06
2022-10-11T03:36:40.893Z,68.40
2022-10-11T03:39:09.480Z,68.19
2022-10-11T03:41:37.960Z,68.23
2022-10-11T03:44:06.235Z,68.53
2022-10-11T03:46:34.759Z,68.75
2022-10-11T03:49:03.404Z,69.28
2022-10-11T03:51:32.110Z,69.08
2022-10-11T03:54:00.435Z,69.06
2022-10-11T03:56:28.953Z,68.96
2022-10-11T03:58:57.229Z,69.06
2022-10-11T04:01:25.763Z,68.81
2022-10-11T04:03:57.520Z,69.01
2022-10-11T04:06:25.848Z,68.91
2022-10-11T04:08:54.173Z,69.38
2022-10-11T04:11:22.608Z,69.51
2022-10-11T04:13:51.193Z,69.46
2022-10-11T04:16:19.572Z,69.26
2022-10-11T04:18:47.955Z,69.49
2022-10-11T04:21:16.283Z,69.72
2022-10-11T04:23:44.815Z,69.47
2022-10-11T04:26:13.603Z,69.55
2022-10-11T04:28:41.841Z,69.38
2022-10-11T04:31:10.155Z,69.21
2022-10-11T04:33:39.049Z,69.33
2022-10-11T04:36:08.516Z,69.07
2022-10-11T04:38:36.766Z,69.03
2022-10-11T04:41:09.071Z,69.54
2022-10-11T04:43:37.274Z,69.59
2022-10-11T04:46:06.807Z,69.98
2022-10-11T04:48:35.774Z,70.37
2022-10-11T04:51:04.257Z,70.36
2022-10-11T04:53:32.535Z,69.87
2022-10-11T04:56:05.940Z,69.71
2022-10-11T04:58:35.868Z,69.68
2022-10-11T05:01:04.586Z,69.51
2022-10-11T05:03:33.014Z,69.55
2022-10-11T05:06:05.402Z,69.50
2022-10-11T05:08:34.689Z,69.40
2022-10-11T05:11:04.604Z,69.41
2022-10-11T05:13:33.291Z,69.24
2022-10-11T05:16:04.028Z,69.20
2022-10-11T05:18:35.392Z,68.93
2022-10-11T05:21:08.444Z,68.92
2022-10-11T05:23:37.459Z,68.69
2022-10-11T05:26:06.407Z,68.67
2022-10-11T05:28:35.401Z,68.57
2022-10-11T05:31:04.030Z,68.13
2022-10-11T05:33:32.311Z,67.71
2022-10-11T05:36:01.119Z,67.68
2022-10-11T05:38:29.477Z,67.24
2022-10-11T05:41:01.336Z,67.36
2022-10-11T05:43:30.515Z,67.02
2022-10-11T05:45:59.073Z,66.93
2022-10-11T05:48:28.727Z,66.75
2022-10-11T05:51:00.999Z,66.37
2022-10-11T05:53:29.748Z,66.30
2022-10-11T05:55:58.172Z,65.46
2022-10-11T05:58:27.060Z,65.13
2022-10-11T06:00:57.074Z,64.72
2022-10-11T06:03:25.433Z,64.53
2022-10-11T06:05:56.973Z,64.28
2022-10-11T06:08:26.106Z,63.92
2022-10-11T06:10:54.487Z,63.36
2022-10-11T06:13:22.582Z,63.18
2022-10-11T06:15:51.272Z,63.09
2022-10-11T06:18:19.830Z,62.86
2022-10-11T06:20:48.209Z,61.70
2022-10-11T06:23:16.901Z,60.96
2022-10-11T06:25:55.518Z,59.71
2022-10-11T06:28:24.123Z,59.27
2022-10-11T06:30:52.586Z,59.42
2022-10-11T06:33:21.476Z,59.41
2022-10-11T06:35:50.060Z,59.17
2022-10-11T06:38:18.339Z,58.59
2022-10-11T06:40:46.716Z,58.65
2022-10-11T06:43:15.170Z,58.31
2022-10-11T06:45:43.382Z,58.27
2022-10-11T06:48:11.756Z,57.79
2022-10-11T06:50:58.636Z,57.65
2022-10-11T06:53:28.493Z,57.53
2022-10-11T06:56:10.993Z,57.56
2022-10-11T06:58:39.937Z,57.27
2022-10-11T07:01:10.058Z,56.77
2022-10-11T07:03:38.382Z,56.53
2022-10-11T07:06:09.655Z,56.48
2022-10-11T07:08:38.734Z,56.27
2022-10-11T07:11:08.851Z,55.87
2022-10-11T07:13:38.133Z,56.44
2022-10-11T07:16:08.498Z,55.99
2022-10-11T07:18:37.265Z,55.70
2022-10-11T07:21:06.849Z,55.01
2022-10-11T07:23:35.473Z,53.96
2022-10-11T07:26:04.153Z,53.76
2022-10-11T07:28:33.100Z,53.74
2022-10-11T07:31:13.093Z,53.43
2022-10-11T07:33:41.473Z,52.82
2022-10-11T07:36:10.410Z,52.28
2022-10-11T07:38:40.232Z,52.05
2022-10-11T07:41:09.689Z,50.81
2022-10-11T07:43:38.474Z,50.88
2022-10-11T07:46:07.522Z,50.42
2022-10-11T07:48:36.795Z,50.24
2022-10-11T07:51:10.037Z,49.98
2022-10-11T07:53:39.961Z,49.76
2022-10-11T07:56:09.156Z,49.41
2022-10-11T07:58:37.662Z,49.49
2022-10-11T08:01:06.612Z,49.33
2022-10-11T08:03:35.327Z,48.05
2022-10-11T08:06:05.348Z,47.51
2022-10-11T08:08:34.153Z,47.14
2022-10-11T08:11:02.534Z,46.73
2022-10-11T08:13:31.223Z,45.54
2022-10-11T08:15:59.815Z,44.54
2022-10-11T08:18:28.596Z,43.52
2022-10-11T08:20:56.871Z,43.72
2022-10-11T08:23:25.354Z,43.62
2022-10-11T08:25:56.600Z,43.59
2022-10-11T08:28:24.922Z,43.42
2022-10-11T08:30:54.079Z,42.67
2022-10-11T08:33:23.605Z,42.01
2022-10-11T08:35:52.602Z,42.60
2022-10-11T08:38:21.983Z,41.66
2022-10-11T08:40:52.319Z,40.81
2022-10-11T08:43:39.929Z,40.79
2022-10-11T08:46:09.824Z,39.94
2022-10-11T08:48:49.682Z,40.40
2022-10-11T08:51:30.989Z,39.87
2022-10-11T08:54:07.549Z,40.36
2022-10-11T08:56:39.117Z,39.97
2022-10-11T08:59:18.658Z,40.03
2022-10-11T09:01:50.083Z,40.04
2022-10-11T09:04:18.488Z,39.52
2022-10-11T09:07:04.895Z,39.87
2022-10-11T09:09:42.694Z,38.52
2022-10-11T09:12:21.453Z,38.40
2022-10-11T09:15:09.214Z,38.20
2022-10-11T09:17:43.881Z,37.70
2022-10-11T09:20:12.159Z,37.26
2022-10-11T09:22:59.278Z,37.68
2022-10-11T09:25:34.013Z,37.93
2022-10-11T09:28:08.126Z,37.90
2022-10-11T09:30:39.234Z,37.84
2022-10-11T09:33:14.813Z,38.18
2022-10-11T09:35:44.934Z,37.60
2022-10-11T09:38:18.848Z,38.00
2022-10-11T09:41:02.482Z,38.48
2022-10-11T09:43:31.071Z,38.29
2022-10-11T09:45:59.448Z,38.96
2022-10-11T09:48:29.363Z,38.94
2022-10-11T09:51:03.246Z,39.76
2022-10-11T09:53:55.106Z,40.40
2022-10-11T09:56:24.688Z,41.56
2022-10-11T09:59:10.216Z,41.63
2022-10-11T10:01:38.814Z,41.61
2022-10-11T10:04:11.679Z,41.73
2022-10-11T10:06:40.544Z,41.70
2022-10-11T10:09:20.919Z,41.37
2022-10-11T10:11:49.713Z,41.25
2022-10-11T10:14:36.220Z,41.51
2022-10-11T10:17:07.101Z,41.06
2022-10-11T10:19:47.310Z,41.55
2022-10-11T10:22:20.610Z,41.20
2022-10-11T10:24:50.632Z,41.47
2022-10-11T10:27:23.719Z,41.29
2022-10-11T10:30:13.415Z,41.24
2022-10-11T10:33:00.761Z,41.19
2022-10-11T10:35:43.458Z,41.49
2022-10-11T10:38:26.403Z,41.65
2022-10-11T10:40:55.251Z,41.64
2022-10-11T10:43:25.254Z,42.25
2022-10-11T10:45:56.234Z,41.71
2022-10-11T10:48:53.790Z,41.59
2022-10-11T10:51:32.291Z,41.83
2022-10-11T10:54:06.713Z,41.20
2022-10-11T10:56:38.472Z,41.56
2022-10-11T10:59:25.649Z,41.00
2022-10-11T11:01:53.913Z,41.07
2022-10-11T11:04:32.490Z,40.68
2022-10-11T11:07:29.960Z,40.92
2022-10-11T11:10:04.168Z,40.92
2022-10-11T11:12:32.446Z,40.99
2022-10-11T11:15:16.597Z,40.13
2022-10-11T11:17:49.321Z,39.88
2022-10-11T11:20:21.040Z,39.64
2022-10-11T11:22:53.284Z,39.96
2022-10-11T11:25:33.740Z,39.75
2022-10-11T11:28:05.123Z,39.46
2022-10-11T11:30:51.730Z,38.87
2022-10-11T11:33:22.876Z,38.52
2022-10-11T11:35:53.790Z,38.68
2022-10-11T11:38:30.081Z,39.04
2022-10-11T11:41:00.527Z,39.27
2022-10-11T11:43:40.153Z,39.38
2022-10-11T11:46:09.940Z,39.46
2022-10-11T11:48:38.960Z,39.57
2022-10-11T11:51:14.486Z,39.86
2022-10-11T11:53:52.007Z,39.94
2022-10-11T11:56:43.833Z,39.69
2022-10-11T11:59:31.229Z,39.59
2022-10-11T12:01:59.739Z,39.50
2022-10-11T12:04:30.580Z,39.59
2022-10-11T12:07:16.741Z,39.59
2022-10-11T12:09:50.908Z,39.68
2022-10-11T12:12:28.877Z,39.38
2022-10-11T12:15:09.465Z,38.76
2022-10-11T12:17:59.044Z,39.17
2022-10-11T12:20:32.235Z,39.72
2022-10-11T12:23:20.156Z,39.69
2022-10-11T12:26:08.626Z,40.05
2022-10-11T12:28:37.176Z,39.41
2022-10-11T12:31:18.390Z,39.93
2022-10-11T12:33:46.977Z,40.05
2022-10-11T12:36:34.506Z,40.13
2022-10-11T12:39:21.726Z,40.76
2022-10-11T12:41:50.419Z,40.65
2022-10-11T12:44:18.576Z,41.02
2022-10-11T12:46:56.188Z,41.42
2022-10-11T12:49:31.300Z,41.19
2022-10-11T12:52:02.867Z,41.26
2022-10-11T12:54:37.596Z,41.18
2022-10-11T12:57:12.014Z,40.65
2022-10-11T12:59:49.627Z,40.86
2022-10-11T13:02:39.819Z,40.73
2022-10-11T13:05:21.308Z,40.81
2022-10-11T13:07:50.484Z,40.74
2022-10-11T13:10:25.136Z,41.19
2022-10-11T13:12:54.724Z,40.88
2022-10-11T13:15:23.940Z,40.81
2022-10-11T13:17:58.237Z,40.92
2022-10-11T13:20:30.079Z,40.90
2022-10-11T13:22:58.706Z,41.11
2022-10-11T13:25:28.801Z,40.95
2022-10-11T13:27:59.699Z,41.43
2022-10-11T13:30:31.017Z,41.67
2022-10-11T13:33:00.112Z,42.00
2022-10-11T13:35:33.320Z,42.35
2022-10-11T13:38:03.079Z,42.38
2022-10-11T13:40:32.342Z,42.46
2022-10-11T13:43:01.082Z,42.59
2022-10-11T13:45:32.961Z,42.60
2022-10-11T13:48:01.555Z,42.77
2022-10-11T13:50:34.739Z,42.62
2022-10-11T13:53:05.585Z,42.81
2022-10-11T13:55:35.691Z,42.94
2022-10-11T13:58:12.789Z,42.95
2022-10-11T14:00:52.538Z,43.46
2022-10-11T14:03:21.738Z,43.31
2022-10-11T14:05:55.154Z,43.20
2022-10-11T14:08:23.695Z,43.39
2022-10-11T14:10:56.656Z,43.69
2022-10-11T14:13:27.118Z,43.85
2022-10-11T14:15:59.338Z,43.73
2022-10-11T14:18:34.956Z,43.99
2022-10-11T14:21:22.077Z,44.37
2022-10-11T14:23:52.301Z,44.34
2022-10-11T14:26:21.129Z,44.78
2022-10-11T14:28:56.434Z,44.96
2022-10-11T14:31:27.476Z,45.07
2022-10-11T14:33:56.468Z,45.35
2022-10-11T14:36:25.537Z,45.76
2022-10-11T14:38:54.153Z,45.67
2022-10-11T14:41:22.633Z,45.69
2022-10-11T14:43:51.118Z,46.00
2022-10-11T14:46:23.798Z,45.98
2022-10-11T14:48:56.551Z,46.30
2022-10-11T14:51:27.931Z,46.36
2022-10-11T14:53:56.625Z,46.62
2022-10-11T14:56:25.204Z,46.67
2022-10-11T14:58:53.615Z,47.07
2022-10-11T15:01:22.287Z,47.56
2022-10-11T15:03:50.650Z,47.79
2022-10-11T15:06:20.991Z,48.06
2022-10-11T15:08:49.335Z,47.93
2022-10-11T15:11:18.554Z,48.21
2022-10-11T15:13:47.252Z,48.58
2022-10-11T15:16:17.055Z,48.51
2022-10-11T15:18:51.068Z,48.38
2022-10-11T15:21:20.757Z,48.73
2022-10-11T15:23:51.006Z,48.64
2022-10-11T15:26:24.238Z,48.74
2022-10-11T15:28:53.647Z,48.82
2022-10-11T15:31:22.594Z,49.35
2022-10-11T15:33:51.086Z,49.71
2022-10-11T15:36:20.893Z,49.73
2022-10-11T15:38:49.556Z,49.89
2022-10-11T15:41:19.092Z,49.69
2022-10-11T15:43:48.978Z,49.96
2022-10-11T15:46:22.428Z,50.47
2022-10-11T15:48:51.343Z,50.19
2022-10-11T15:51:19.568Z,50.16
2022-10-11T15:53:47.847Z,50.44
2022-10-11T15:56:18.961Z,50.89
2022-10-11T15:58:47.166Z,50.93
2022-10-11T16:01:19.866Z,50.90
2022-10-11T16:03:49.497Z,50.99
2022-10-11T16:06:18.806Z,51.21
2022-10-11T16:08:48.266Z,51.61
2022-10-11T16:11:16.741Z,51.66
2022-10-11T16:13:45.461Z,51.94
2022-10-11T16:16:14.092Z,52.18
2022-10-11T16:18:42.679Z,52.26
2022-10-11T16:21:12.007Z,52.44
2022-10-11T16:23:40.272Z,52.27
2022-10-11T16:26:10.590Z,52.44
2022-10-11T16:28:39.278Z,52.39
2022-10-11T16:31:09.009Z,52.80
2022-10-11T16:33:46.205Z,52.55
2022-10-11T16:36:36.148Z,53.16
2022-10-11T16:39:44.650Z,53.47
2022-10-11T16:42:52.918Z,53.59
2022-10-11T16:46:01.029Z,53.44
2022-10-11T16:52:41.746Z,53.65
2022-10-11T16:55:50.146Z,53.87
2022-10-11T16:58:58.258Z,53.90
2022-10-11T17:05:24.190Z,54.69
2022-10-11T17:07:52.486Z,54.88
2022-10-11T17:10:39.613Z,54.89
2022-10-11T17:13:08.053Z,54.64
2022-10-11T17:15:37.213Z,54.56
2022-10-11T17:18:06.487Z,54.59
2022-10-11T17:20:34.969Z,54.60
2022-10-11T17:23:03.263Z,54.69
2022-10-11T17:25:31.627Z,54.74
2022-10-11T17:28:00.117Z,54.99
2022-10-11T17:30:28.284Z,54.68
2022-10-11T17:32:56.508Z,54.93
2022-10-11T17:35:25.045Z,54.99
2022-10-11T17:37:53.221Z,55.09
2022-10-11T17:40:21.602Z,55.19
2022-10-11T17:42:50.148Z,55.46
2022-10-11T17:45:19.486Z,55.69
2022-10-11T17:47:47.969Z,55.58
2022-10-11T17:50:16.509Z,55.47
2022-10-11T17:52:44.833Z,55.47
2022-10-11T17:55:13.729Z,55.43
2022-10-11T17:57:42.409Z,55.91
2022-10-11T18:00:10.999Z,55.93
2022-10-11T18:02:40.508Z,55.74
2022-10-11T18:05:09.188Z,55.86
2022-10-11T18:07:37.364Z,56.07
2022-10-11T18:10:06.050Z,56.33
2022-10-11T18:12:34.739Z,56.35
2022-10-11T18:15:42.914Z,56.40
2022-10-11T18:18:11.965Z,57.03
2022-10-11T18:20:44.669Z,57.02
2022-10-11T18:23:13.109Z,56.64
2022-10-11T18:25:41.363Z,56.58
2022-10-11T18:28:09.906Z,57.06
2022-10-11T18:30:43.922Z,56.76
2022-10-11T18:33:12.298Z,57.11
2022-10-11T18:35:40.845Z,57.64
2022-10-11T18:38:09.431Z,58.01
2022-10-11T18:40:46.137Z,57.57
2022-10-11T18:43:15.715Z,57.57
2022-10-11T18:46:23.928Z,57.31
2022-10-11T18:49:32.239Z,57.62
2022-10-11T18:52:44.429Z,57.63
2022-10-11T18:55:13.241Z,57.36
2022-10-11T18:57:41.622Z,57.29
2022-10-11T19:00:29.414Z,57.51
2022-10-11T19:02:58.836Z,57.85
2022-10-11T19:05:28.063Z,58.12
2022-10-11T19:07:56.422Z,57.74
2022-10-11T19:10:24.822Z,58.01
2022-10-11T19:12:53.100Z,58.02
2022-10-11T19:15:24.196Z,58.05
2022-10-11T19:17:56.824Z,58.36
2022-10-11T19:20:25.205Z,58.48
2022-10-11T19:22:53.480Z,58.42
2022-10-11T19:25:22.487Z,58.38
2022-10-11T19:27:50.754Z,59.20
2022-10-11T19:30:19.281Z,59.00
2022-10-11T19:32:48.126Z,59.00
2022-10-11T19:35:19.795Z,59.23
2022-10-11T19:37:49.288Z,58.97
2022-10-11T19:40:17.872Z,59.05
2022-10-11T19:42:46.216Z,59.23
2022-10-11T19:45:14.837Z,59.70
2022-10-11T19:47:43.013Z,59.79
2022-10-11T19:50:11.276Z,59.95
2022-10-11T19:52:44.712Z,60.43
2022-10-11T19:55:13.580Z,59.93
2022-10-11T19:57:42.367Z,60.02
2022-10-11T20:00:10.952Z,59.79
2022-10-11T20:02:39.128Z,59.72
2022-10-11T20:05:08.021Z,59.92
2022-10-11T20:07:36.299Z,60.21
2022-10-11T20:10:04.779Z,60.33
2022-10-11T20:12:34.040Z,60.48
2022-10-11T20:15:02.770Z,60.59
2022-10-11T20:18:03.916Z,60.65
2022-10-11T20:20:32.605Z,60.84
2022-10-11T20:23:00.779Z,61.03
2022-10-11T20:25:29.364Z,61.10
2022-10-11T20:27:57.742Z,61.38
2022-10-11T20:30:25.917Z,61.42
2022-10-11T20:32:54.605Z,61.45
2022-10-11T20:35:23.088Z,61.52
2022-10-11T20:37:53.927Z,61.72
2022-10-11T20:40:22.510Z,61.81
2022-10-11T20:42:50.995Z,61.70
2022-10-11T20:45:19.372Z,61.86
2022-10-11T20:47:47.957Z,62.04
2022-10-11T20:50:22.151Z,62.00
2022-10-11T20:52:51.678Z,62.33
2022-10-11T20:55:20.469Z,62.30
2022-10-11T20:57:48.951Z,62.25
2022-10-11T21:00:17.535Z,62.37
2022-10-11T21:02:46.019Z,62.21
2022-10-11T21:05:14.401Z,62.03
2022-10-11T21:07:43.085Z,61.91
2022-10-11T21:10:11.873Z,62.16
2022-10-11T21:12:40.050Z,62.24
2022-10-11T21:15:08.736Z,62.58
2022-10-11T21:17:37.424Z,62.59
2022-10-11T21:20:06.630Z,62.99
2022-10-11T21:22:35.972Z,62.92
2022-10-11T21:25:05.327Z,62.78
2022-10-11T21:27:33.790Z,63.48
2022-10-11T21:30:02.503Z,63.10
2022-10-11T21:32:31.123Z,63.64
2022-10-11T21:34:59.461Z,63.26
2022-10-11T21:37:27.841Z,63.01
2022-10-11T21:39:56.351Z,63.86
2022-10-11T21:42:29.284Z,64.29
2022-10-11T21:44:58.311Z,64.17
2022-10-11T21:47:26.686Z,63.90
2022-10-11T21:49:54.859Z,63.77
2022-10-11T21:52:23.524Z,63.60
2022-10-11T21:54:52.140Z,64.30
2022-10-11T21:57:20.308Z,64.38
2022-10-11T21:59:49.095Z,64.77
2022-10-11T22:02:17.373Z,64.16
2022-10-11T22:04:45.548Z,63.47
2022-10-11T22:07:14.236Z,64.59
2022-10-11T22:09:42.512Z,65.24
2022-10-11T22:12:10.791Z,65.33
2022-10-11T22:14:39.456Z,64.59
2022-10-11T22:17:07.961Z,64.95
2022-10-11T22:19:36.142Z,65.54
2022-10-11T22:22:05.130Z,65.95
2022-10-11T22:24:33.565Z,66.01
2022-10-11T22:27:01.788Z,66.63
2022-10-11T22:29:34.017Z,67.39
2022-10-11T22:32:03.362Z,68.40
2022-10-11T22:34:32.866Z,68.48
2022-10-11T22:37:01.041Z,68.11
2022-10-11T22:39:29.727Z,68.26
2022-10-11T22:41:58.928Z,68.65
2022-10-11T22:44:27.204Z,68.62
2022-10-11T22:46:55.380Z,68.72
2022-10-11T22:49:23.964Z,68.67
2022-10-11T22:51:52.343Z,68.65
2022-10-11T22:54:20.621Z,69.23
2022-10-11T22:56:49.308Z,69.12
2022-10-11T22:59:17.996Z,69.71
2022-10-11T23:01:46.110Z,69.45
2022-10-11T23:04:17.904Z,69.88
2022-10-11T23:06:46.266Z,69.94
2022-10-11T23:09:14.688Z,69.93
2022-10-11T23:11:43.480Z,69.66
2022-10-11T23:14:11.756Z,69.35
2022-10-11T23:16:39.929Z,69.47
2022-10-11T23:19:08.310Z,68.94
2022-10-11T23:21:36.795Z,69.61
2022-10-11T23:24:05.787Z,69.37
2022-10-11T23:26:34.269Z,69.73
2022-10-11T23:29:02.635Z,69.27
2022-10-11T23:31:30.932Z,69.86
2022-10-11T23:33:59.819Z,69.37
2022-10-11T23:36:28.178Z,69.42
2022-10-11T23:38:57.605Z,69.30
2022-10-11T23:41:29.975Z,69.38
2022-10-11T23:43:58.971Z,69.73
2022-10-11T23:46:27.453Z,69.31
2022-10-11T23:48:55.934Z,69.41
2022-10-11T23:51:24.170Z,69.43
2022-10-11T23:53:52.597Z,69.75
2022-10-11T23:56:20.970Z,69.29
2022-10-11T23:58:49.562Z,69.38
